Relevés horaires Beauvechain (Belgique)


Relevés horaires à Beauvechain - Jeudi 29 Juill. 2021
Heure UTC1 Température [°C] Vent [km/h] Hum. [%] Pres.4 [hPa] Visi. [Km] Nébu. [octa] Préc.5 [mm] Cond.
2m. Res. Ros. Dir.2 Vit. Moy. Raf.3
23:00 15.8 15.8 10.1 S 3.7 -- 5.6 69 1011.8(-0.8/3h) 20 -- -- --
22:00 16.5 16.5 10.3 SSO 3.7 -- 3.7 67 1012(-0.4/3h) 20 -- -- --
21:00 16.7 16.7 9.8 SO 3.7 -- 11.1 64 1012.3(0.0/3h) 20 -- -- NA
20:00 16.7 16.7 10.2 OSO 3.7 -- 5.6 65 1012.6(0.3/3h) 20 -- -- NA
19:00 18.0 18.0 10.5 OSO 3.7 -- 11.1 62 1012.3(0.0/3h) 20 -- -- --
18:00 19.1 19.1 10.1 O 7.4 -- 24.1 56 1012.2(-0.1/3h) 20 -- -- --
17:00 19.7 19.7 10.0 OSO 7.4 -- 16.7 54 1012.2(-0.4/3h) 20 -- -- --
16:00 19.7 19.7 9.3 OSO 13.0 -- 20.4 51 1012.2(-0.2/3h) 20 -- -- --
15:00 20.1 20.1 9.3 SO 14.8 -- 24.1 50 1012.3(-0.2/3h) 20 4/8 -- --
14:00 20.2 20.2 9.0 OSO 14.8 -- 24.1 48 1012.5(0.1/3h) 20 2/8 -- --
13:00 19.8 19.8 8.2 OSO 14.8 -- 24.1 47 1012.7(0.0/3h) 20 5/8 -- --
12:00 19.6 19.6 10.1 OSO 14.8 -- 24.1 54 1012.7(0.1/3h) 20 5/8 -- --
11:00 19.2 19.2 10.2 OSO 13.0 -- 24.1 56 1012.5(0.0/3h) 20 5/8 -- --
10:00 17.7 17.4 10.0 SO 14.8 -- 24.1 61 1012.7(0.4/3h) 20 5/8 -- --
09:00 17.7 17.4 10.9 OSO 14.8 -- 20.4 64 1012.6(0.8/3h) 20 5/8 -- --
08:00 16.3 15.9 10.9 OSO 13.0 -- 20.4 70 1012.6(0.9/3h) 20 3/8 -- --
07:00 15.6 15 11.7 SO 13.0 -- 20.4 78 1012.2(0.7/3h) 20 3/8 -- --
06:00 14.2 13.5 11.4 SO 11.1 -- 16.7 83 1012.4(0.4/3h) 20 4/8 0.7/12h
--
05:00 14.0 13.5 11.3 SO 9.3 -- 16.7 84 1011.7(0.7/3h) 20 -- -- --
04:00 14.0 13.5 11.4 SO 9.3 -- 16.7 84 1011.6(0.4/3h) 20 -- -- --
03:00 14.3 13.9 11.6 SO 9.3 -- 14.8 84 1011.3(0.1/3h) 20 -- -- --
02:00 14.6 14.2 11.8 SO 9.3 -- 14.8 83 1010.8(-0.3/3h) 20 -- -- --
01:00 15.1 15.1 12.5 SO 7.4 -- 14.8 84 1011.1(-0.3/3h) 20 -- -- --
00:00 14.6 14.5 13.0 SSO 7.4 -- 13.0 90 1011.2(-0.3/3h) 20 -- 0.9/6h
NA

1 Coordinated Universal Time. Actuellement il est 05:00 locale et 03:00 UTC.

2 Le vent souffle depuis la direction indiquée vers la direction oposée.

3 Les rafales max. sont disponible 40 min après l'heure du relevé.

4 Pour les stations d'altitude (plus de 600m) le géopotentiel du niveau le plus proche de la pression obligatoire est indiqué.

5 Les stations disposant d'un diffuseur peuvent indiquer "trace". Cela signifie que des précipitations ont touchés le sol mais que la quantité est inférieure à 0.1 mm.

Récapitulatif de la journée
Température [°C] Vent [km/h] Ensoleillement4 [h] Precipitations totale5 [mm] Pression [Hpa]
Min1 Max.2 Moy.3 Max. Min Max.
13.1 21.3 0 24.1 0 h 0 min 0 1010.8 1012.7

1 Température minimale relevée entre 18:00 UTC la veille et 18:00 UTC le jour donné.

2 Température maximale relevée entre 06:00 UTC le jour donné et 06:00 UTC le lendemain.

3 Vent moyen de la journée basé sur les relevés horaires.

4 Ensoleillement en heures relevé entre 06:00 UTC la veille et 06:00 UTC le jour donné.

5 Précipitations totales tombées entre 06:00 UTC la jour donné et 06:00 UTC le lendemain.

Graphiques horaires